Kelowna, Canada
Current Conditions -  °F | °C
As of 6:00 AM on Saturday 20 Dec 2014 (Local Time) from CYLW Reporting Station
Broken Clouds Broken Clouds  
Wind Chill: 27°   Ceiling: 12000
Heat Index: 32°   Visibility: 9mi
Dew Point: 32°   Wind: 5mph
Humidity: 100%   Direction: 10°N
Pressure: 29.82"   Gusts: NA
Location:  49.89°N, 119.5°W
Report Text: CYLW 201400Z AUTO 01004KT 9SM FEW055 BKN120 00/00 A2982 RMK SLP113
Loading
Personal Weather Stations






























Interactive Weather Map New forecast layout! Learn more

10-Day Weather Forecast

Advertisements
Track Severe Weather on mobile